createdAt,value
2022-10-01T00:02:08.296Z,6.52
2022-10-01T00:04:37.923Z,6.57
2022-10-01T00:07:09.299Z,6.58
2022-10-01T00:09:35.686Z,6.58
2022-10-01T00:12:02.962Z,6.60
2022-10-01T00:14:29.498Z,6.63
2022-10-01T00:16:55.953Z,6.64
2022-10-01T00:19:22.866Z,6.59
2022-10-01T00:21:49.539Z,6.56
2022-10-01T00:24:15.985Z,6.58
2022-10-01T00:26:42.930Z,6.60
2022-10-01T00:29:14.425Z,6.68
2022-10-01T00:31:41.144Z,6.68
2022-10-01T00:34:07.612Z,6.67
2022-10-01T00:36:34.715Z,6.64
2022-10-01T00:39:02.057Z,6.62
2022-10-01T00:41:31.941Z,6.62
2022-10-01T00:44:01.975Z,6.69
2022-10-01T00:46:40.603Z,6.70
2022-10-01T00:49:20.450Z,6.69
2022-10-01T00:51:52.412Z,6.69
2022-10-01T00:54:31.158Z,6.70
2022-10-01T00:56:59.459Z,6.77
2022-10-01T00:59:26.789Z,6.81
2022-10-01T01:01:54.049Z,6.89
2022-10-01T01:04:20.526Z,6.95
2022-10-01T01:06:55.812Z,6.97
2022-10-01T01:09:26.222Z,7.03
2022-10-01T01:11:58.402Z,7.09
2022-10-01T01:14:35.978Z,7.17
2022-10-01T01:17:10.802Z,7.18
2022-10-01T01:20:02.070Z,7.26
2022-10-01T01:22:34.637Z,7.27
2022-10-01T01:25:16.449Z,7.28
2022-10-01T01:27:50.122Z,7.34
2022-10-01T01:30:20.555Z,7.28
2022-10-01T01:32:54.053Z,7.32
2022-10-01T01:35:27.147Z,7.28
2022-10-01T01:37:58.720Z,7.27
2022-10-01T01:40:26.911Z,7.32
2022-10-01T01:42:55.587Z,7.30
2022-10-01T01:45:24.293Z,7.33
2022-10-01T01:47:56.004Z,7.39
2022-10-01T01:50:25.514Z,7.34
2022-10-01T01:52:53.934Z,7.37
2022-10-01T01:55:25.719Z,7.39
2022-10-01T01:57:53.135Z,7.41
2022-10-01T02:00:19.634Z,7.32
2022-10-01T02:02:52.799Z,7.30
2022-10-01T02:05:32.935Z,7.26
2022-10-01T02:08:12.761Z,7.16
2022-10-01T02:10:44.903Z,7.12
2022-10-01T02:13:33.551Z,7.07
2022-10-01T02:16:18.993Z,7.06
2022-10-01T02:19:04.283Z,7.03
2022-10-01T02:21:52.562Z,7.08
2022-10-01T02:24:39.294Z,6.98
2022-10-01T02:27:15.680Z,6.98
2022-10-01T02:29:45.164Z,6.96
2022-10-01T02:32:13.822Z,6.91
2022-10-01T02:34:40.941Z,6.86
2022-10-01T02:37:10.836Z,6.77
2022-10-01T02:39:41.385Z,6.69
2022-10-01T02:42:12.974Z,6.61
2022-10-01T02:44:42.578Z,6.51
2022-10-01T02:47:21.250Z,6.55
2022-10-01T02:49:48.990Z,6.51
2022-10-01T02:52:37.483Z,6.57
2022-10-01T02:55:05.520Z,6.62
2022-10-01T02:57:32.886Z,6.65
2022-10-01T03:00:03.095Z,6.60
2022-10-01T03:02:31.681Z,6.69
2022-10-01T03:04:58.906Z,6.62
2022-10-01T03:07:26.774Z,6.62
2022-10-01T03:09:53.536Z,6.64
2022-10-01T03:12:20.308Z,6.64
2022-10-01T03:14:46.816Z,6.59
2022-10-01T03:17:15.472Z,6.62
2022-10-01T03:19:42.698Z,6.63
2022-10-01T03:22:12.965Z,6.69
2022-10-01T03:24:39.376Z,6.67
2022-10-01T03:27:05.755Z,6.68
2022-10-01T03:29:32.146Z,6.71
2022-10-01T03:31:58.525Z,6.80
2022-10-01T03:34:25.060Z,6.77
2022-10-01T03:36:52.712Z,6.83
2022-10-01T03:39:19.764Z,6.80
2022-10-01T03:41:46.422Z,6.83
2022-10-01T03:44:13.043Z,6.82
2022-10-01T03:46:39.506Z,6.86
2022-10-01T03:49:05.914Z,6.88
2022-10-01T03:51:32.746Z,6.87
2022-10-01T03:53:59.440Z,6.93
2022-10-01T03:56:26.297Z,6.93
2022-10-01T03:58:52.721Z,6.88
2022-10-01T04:01:19.302Z,6.97
2022-10-01T04:03:46.311Z,7.01
2022-10-01T04:06:12.997Z,6.97
2022-10-01T04:08:39.474Z,7.00
2022-10-01T04:11:06.925Z,6.97
2022-10-01T04:13:34.606Z,6.97
2022-10-01T04:16:02.818Z,7.02
2022-10-01T04:18:29.478Z,7.06
2022-10-01T04:20:55.897Z,7.12
2022-10-01T04:23:22.625Z,7.06
2022-10-01T04:25:49.419Z,7.06
2022-10-01T04:28:16.114Z,7.03
2022-10-01T04:30:45.860Z,7.03
2022-10-01T04:33:14.777Z,7.04
2022-10-01T04:35:41.712Z,7.03
2022-10-01T04:38:16.934Z,7.04
2022-10-01T04:40:43.300Z,7.07
2022-10-01T04:43:12.465Z,7.06
2022-10-01T04:45:39.000Z,7.08
2022-10-01T04:48:05.893Z,7.03
2022-10-01T04:50:33.074Z,7.01
2022-10-01T04:52:59.486Z,7.09
2022-10-01T04:55:26.171Z,7.07
2022-10-01T04:57:52.574Z,7.09
2022-10-01T05:00:21.928Z,7.18
2022-10-01T05:02:49.542Z,7.16
2022-10-01T05:05:17.403Z,7.16
2022-10-01T05:07:43.918Z,7.16
2022-10-01T05:10:12.644Z,7.20
2022-10-01T05:12:38.949Z,7.27
2022-10-01T05:15:05.950Z,7.29
2022-10-01T05:17:34.471Z,7.23
2022-10-01T05:20:02.062Z,7.24
2022-10-01T05:22:28.703Z,7.17
2022-10-01T05:24:55.197Z,7.20
2022-10-01T05:27:21.596Z,7.24
2022-10-01T05:29:48.327Z,7.21
2022-10-01T05:32:15.907Z,7.25
2022-10-01T05:34:43.159Z,7.30
2022-10-01T05:37:10.905Z,7.28
2022-10-01T05:39:37.775Z,7.28
2022-10-01T05:42:06.530Z,7.32
2022-10-01T05:44:37.942Z,7.38
2022-10-01T05:47:07.700Z,7.43
2022-10-01T05:49:34.339Z,7.49
2022-10-01T05:52:01.141Z,7.49
2022-10-01T05:54:29.549Z,7.56
2022-10-01T05:56:58.991Z,7.57
2022-10-01T05:59:28.432Z,7.63
2022-10-01T06:01:57.992Z,7.62
2022-10-01T06:04:24.538Z,7.62
2022-10-01T06:06:51.077Z,7.66
2022-10-01T06:09:17.640Z,7.82
2022-10-01T06:11:44.151Z,7.85
2022-10-01T06:14:10.645Z,7.83
2022-10-01T06:16:37.131Z,7.81
2022-10-01T06:19:03.782Z,7.83
2022-10-01T06:21:31.837Z,7.89
2022-10-01T06:23:58.488Z,7.95
2022-10-01T06:26:25.048Z,7.94
2022-10-01T06:28:52.599Z,7.88
2022-10-01T06:31:19.676Z,7.95
2022-10-01T06:33:46.139Z,7.99
2022-10-01T06:36:12.562Z,8.04
2022-10-01T06:38:39.023Z,8.05
2022-10-01T06:41:05.696Z,8.08
2022-10-01T06:43:33.273Z,8.07
2022-10-01T06:46:04.802Z,8.11
2022-10-01T06:48:32.350Z,8.08
2022-10-01T06:50:59.390Z,8.15
2022-10-01T06:53:27.909Z,8.21
2022-10-01T06:55:55.290Z,8.18
2022-10-01T06:58:26.186Z,8.21
2022-10-01T07:00:58.482Z,8.23
2022-10-01T07:03:25.049Z,8.27
2022-10-01T07:05:51.550Z,8.30
2022-10-01T07:08:25.018Z,8.30
2022-10-01T07:10:51.408Z,8.35
2022-10-01T07:13:20.187Z,8.37
2022-10-01T07:15:46.853Z,8.38
2022-10-01T07:18:13.802Z,8.41
2022-10-01T07:20:40.996Z,8.38
2022-10-01T07:23:10.714Z,8.40
2022-10-01T07:25:38.882Z,8.46
2022-10-01T07:28:07.197Z,8.51
2022-10-01T07:30:41.171Z,8.59
2022-10-01T07:33:07.546Z,8.60
2022-10-01T07:35:37.674Z,8.66
2022-10-01T07:38:08.060Z,8.67
2022-10-01T07:40:35.000Z,8.75
2022-10-01T07:43:01.440Z,8.72
2022-10-01T07:45:28.910Z,8.71
2022-10-01T07:48:00.286Z,8.66
2022-10-01T07:50:30.491Z,8.68
2022-10-01T07:52:58.311Z,8.64
2022-10-01T07:55:27.045Z,8.55
2022-10-01T07:57:55.387Z,8.52
2022-10-01T08:00:23.781Z,8.50
2022-10-01T08:02:53.475Z,8.45
2022-10-01T08:05:21.959Z,8.43
2022-10-01T08:07:49.616Z,8.40
2022-10-01T08:10:17.961Z,8.34
2022-10-01T08:12:44.950Z,8.37
2022-10-01T08:15:13.870Z,8.36
2022-10-01T08:17:40.519Z,8.33
2022-10-01T08:20:09.117Z,8.33
2022-10-01T08:22:39.811Z,8.39
2022-10-01T08:25:08.357Z,8.40
2022-10-01T08:27:34.819Z,8.43
2022-10-01T08:30:01.452Z,8.43
2022-10-01T08:32:28.207Z,8.38
2022-10-01T08:34:59.892Z,8.38
2022-10-01T08:37:27.755Z,8.33
2022-10-01T08:39:55.209Z,8.37
2022-10-01T08:42:27.519Z,8.40
2022-10-01T08:44:54.059Z,8.45
2022-10-01T08:47:33.905Z,8.45
2022-10-01T08:50:24.980Z,8.48
2022-10-01T08:52:57.772Z,8.49
2022-10-01T08:55:31.879Z,8.49
2022-10-01T08:58:02.389Z,8.50
2022-10-01T09:00:32.519Z,8.47
2022-10-01T09:03:04.803Z,8.49
2022-10-01T09:05:46.110Z,8.51
2022-10-01T09:08:49.285Z,8.54
2022-10-01T09:11:42.091Z,8.55
2022-10-01T09:14:24.983Z,8.57
2022-10-01T09:17:10.795Z,8.60
2022-10-01T09:19:51.769Z,8.64
2022-10-01T09:22:40.116Z,8.68
2022-10-01T09:25:09.755Z,8.79
2022-10-01T09:27:38.226Z,8.76
2022-10-01T09:30:11.517Z,8.86
2022-10-01T09:32:45.295Z,8.87
2022-10-01T09:35:23.305Z,8.92
2022-10-01T09:38:17.901Z,8.96
2022-10-01T09:40:57.611Z,8.99
2022-10-01T09:43:29.936Z,9.01
2022-10-01T09:45:56.761Z,9.00
2022-10-01T09:48:34.152Z,8.98
2022-10-01T09:51:13.008Z,9.04
2022-10-01T09:53:45.898Z,9.09
2022-10-01T09:56:19.378Z,9.01
2022-10-01T09:58:50.126Z,9.05
2022-10-01T10:01:24.147Z,9.05
2022-10-01T10:03:55.646Z,9.12
2022-10-01T10:06:27.414Z,9.19
2022-10-01T10:08:56.923Z,9.19
2022-10-01T10:11:27.003Z,9.20
2022-10-01T10:13:58.332Z,9.30
2022-10-01T10:16:28.682Z,9.35
2022-10-01T10:18:58.803Z,9.34
2022-10-01T10:21:29.527Z,9.37
2022-10-01T10:24:00.831Z,9.38
2022-10-01T10:26:39.028Z,9.40
2022-10-01T10:29:08.588Z,9.46
2022-10-01T10:31:42.934Z,9.52
2022-10-01T10:34:18.588Z,9.59
2022-10-01T10:36:46.926Z,9.66
2022-10-01T10:39:23.840Z,9.79
2022-10-01T10:41:53.436Z,9.77
2022-10-01T10:44:24.269Z,9.85
2022-10-01T10:46:53.603Z,9.95
2022-10-01T10:49:47.947Z,10.02
2022-10-01T10:52:21.048Z,10.03
2022-10-01T10:54:49.620Z,9.99
2022-10-01T10:57:23.165Z,9.95
2022-10-01T11:00:12.635Z,10.05
2022-10-01T11:02:42.328Z,10.01
2022-10-01T11:05:24.491Z,10.10
2022-10-01T11:07:55.982Z,10.13
2022-10-01T11:10:33.423Z,10.11
2022-10-01T11:13:49.571Z,10.12
2022-10-01T11:16:34.518Z,10.13
2022-10-01T11:19:03.860Z,10.13
2022-10-01T11:21:48.395Z,10.20
2022-10-01T11:24:35.145Z,10.25
2022-10-01T11:27:01.467Z,10.29
2022-10-01T11:30:01.433Z,10.27
2022-10-01T11:32:38.991Z,10.44
2022-10-01T11:35:18.632Z,10.43
2022-10-01T11:37:51.118Z,10.48
2022-10-01T11:40:33.907Z,10.57
2022-10-01T11:43:05.556Z,10.67
2022-10-01T11:45:41.405Z,10.83
2022-10-01T11:48:18.022Z,10.93
2022-10-01T11:50:48.194Z,10.96
2022-10-01T11:53:33.677Z,10.97
2022-10-01T11:56:23.942Z,11.00
2022-10-01T11:59:06.122Z,11.00
2022-10-01T12:01:45.108Z,10.94
2022-10-01T12:04:52.443Z,10.87
2022-10-01T12:07:24.216Z,10.84
2022-10-01T12:09:55.352Z,10.84
2022-10-01T12:12:34.346Z,10.80
2022-10-01T12:15:39.297Z,10.80
2022-10-01T12:18:52.217Z,10.76
2022-10-01T12:21:31.275Z,10.75
2022-10-01T12:24:03.536Z,10.66
2022-10-01T12:27:04.959Z,10.65
2022-10-01T12:29:54.082Z,10.60
2022-10-01T12:32:39.074Z,10.63
2022-10-01T12:35:35.700Z,10.64
2022-10-01T12:38:25.204Z,10.65
2022-10-01T12:41:00.643Z,10.68
2022-10-01T12:43:36.020Z,10.68
2022-10-01T12:46:05.530Z,10.67
2022-10-01T12:48:38.031Z,10.71
2022-10-01T12:51:07.466Z,10.76
2022-10-01T12:53:40.263Z,10.75
2022-10-01T12:56:12.951Z,10.77
2022-10-01T12:59:21.425Z,10.91
2022-10-01T13:02:10.641Z,10.90
2022-10-01T13:04:56.663Z,10.97
2022-10-01T13:07:26.221Z,10.96
2022-10-01T13:10:05.667Z,11.03
2022-10-01T13:12:44.127Z,11.09
2022-10-01T13:15:16.795Z,11.13
2022-10-01T13:17:54.839Z,11.19
2022-10-01T13:20:38.064Z,11.20
2022-10-01T13:23:34.185Z,11.32
2022-10-01T13:26:20.079Z,11.35
2022-10-01T13:29:25.764Z,11.38
2022-10-01T13:32:01.246Z,11.43
2022-10-01T13:34:36.554Z,11.43
2022-10-01T13:37:29.482Z,11.49
2022-10-01T13:39:57.329Z,11.52
2022-10-01T13:42:27.204Z,11.50
2022-10-01T13:44:57.959Z,11.59
2022-10-01T13:47:25.382Z,11.62
2022-10-01T13:50:03.919Z,11.57
2022-10-01T13:52:31.865Z,11.64
2022-10-01T13:55:01.123Z,11.65
2022-10-01T13:57:27.533Z,11.64
2022-10-01T14:00:03.133Z,11.64
2022-10-01T14:02:35.958Z,11.66
2022-10-01T14:05:19.030Z,11.75
2022-10-01T14:07:50.252Z,11.75
2022-10-01T14:10:16.856Z,11.77
2022-10-01T14:13:05.402Z,11.86
2022-10-01T14:16:02.747Z,11.90
2022-10-01T14:18:42.882Z,11.93
2022-10-01T14:21:37.589Z,11.97
2022-10-01T14:24:25.691Z,12.06
2022-10-01T14:26:52.038Z,12.06
2022-10-01T14:30:03.185Z,12.01
2022-10-01T14:32:44.143Z,12.02
2022-10-01T14:35:32.959Z,12.08
2022-10-01T14:38:01.790Z,12.11
2022-10-01T14:40:49.356Z,12.06
2022-10-01T14:43:20.615Z,11.99
2022-10-01T14:46:02.151Z,12.01
2022-10-01T14:48:34.159Z,11.98
2022-10-01T14:51:03.482Z,12.00
2022-10-01T14:53:33.493Z,12.00
2022-10-01T14:56:05.555Z,11.99
2022-10-01T14:58:37.083Z,11.99
2022-10-01T15:01:05.479Z,11.98
2022-10-01T15:03:38.786Z,11.98
2022-10-01T15:06:13.128Z,11.97
2022-10-01T15:08:40.882Z,11.93
2022-10-01T15:11:22.095Z,11.94
2022-10-01T15:13:51.136Z,11.90
2022-10-01T15:16:20.485Z,11.85
2022-10-01T15:18:53.445Z,11.90
2022-10-01T15:21:24.580Z,11.92
2022-10-01T15:23:51.437Z,11.93
2022-10-01T15:26:27.469Z,11.98
2022-10-01T15:29:03.075Z,11.99
2022-10-01T15:31:30.194Z,11.96
2022-10-01T15:33:57.040Z,11.95
2022-10-01T15:36:23.558Z,11.98
2022-10-01T15:38:50.907Z,11.99
2022-10-01T15:41:33.408Z,12.01
2022-10-01T15:44:05.403Z,11.99
2022-10-01T15:46:34.785Z,11.96
2022-10-01T15:49:18.588Z,11.95
2022-10-01T15:52:19.308Z,11.94
2022-10-01T15:54:46.213Z,11.94
2022-10-01T15:57:21.893Z,11.96
2022-10-01T15:59:51.610Z,11.94
2022-10-01T16:02:25.723Z,11.93
2022-10-01T16:04:56.009Z,11.94
2022-10-01T16:07:29.618Z,11.93
2022-10-01T16:09:58.584Z,11.90
2022-10-01T16:12:27.994Z,11.88
2022-10-01T16:15:04.556Z,11.92
2022-10-01T16:17:36.922Z,11.92
2022-10-01T16:20:15.525Z,11.89
2022-10-01T16:22:43.419Z,11.87
2022-10-01T16:25:19.576Z,11.87
2022-10-01T16:27:48.724Z,11.86
2022-10-01T16:30:18.471Z,11.97
2022-10-01T16:32:45.668Z,11.96
2022-10-01T16:35:16.631Z,11.97
2022-10-01T16:37:45.404Z,12.02
2022-10-01T16:40:15.949Z,12.03
2022-10-01T16:42:44.007Z,12.00
2022-10-01T16:45:15.841Z,12.03
2022-10-01T16:47:42.868Z,12.08
2022-10-01T16:50:17.237Z,12.08
2022-10-01T16:52:43.904Z,12.08
2022-10-01T16:55:24.186Z,12.10
2022-10-01T16:57:53.544Z,12.07
2022-10-01T17:00:22.295Z,12.15
2022-10-01T17:02:48.785Z,12.12
2022-10-01T17:05:22.397Z,12.14
2022-10-01T17:07:49.487Z,12.13
2022-10-01T17:10:17.731Z,12.11
2022-10-01T17:12:47.749Z,12.10
2022-10-01T17:15:17.324Z,12.10
2022-10-01T17:17:45.262Z,12.16
2022-10-01T17:20:12.611Z,12.19
2022-10-01T17:22:39.448Z,12.17
2022-10-01T17:25:07.240Z,12.14
2022-10-01T17:27:33.831Z,12.15
2022-10-01T17:30:00.318Z,12.21
2022-10-01T17:32:27.116Z,12.21
2022-10-01T17:34:54.386Z,12.17
2022-10-01T17:37:23.871Z,12.23
2022-10-01T17:39:50.685Z,12.28
2022-10-01T17:42:18.055Z,12.30
2022-10-01T17:44:45.106Z,12.31
2022-10-01T17:47:12.191Z,12.35
2022-10-01T17:49:39.456Z,12.41
2022-10-01T17:52:05.920Z,12.45
2022-10-01T17:54:33.240Z,12.47
2022-10-01T17:56:59.703Z,12.45
2022-10-01T17:59:26.100Z,12.43
2022-10-01T18:01:53.225Z,12.45
2022-10-01T18:04:19.708Z,12.50
2022-10-01T18:06:48.486Z,12.42
2022-10-01T18:09:15.471Z,12.31
2022-10-01T18:11:41.948Z,12.14
2022-10-01T18:14:08.526Z,11.92
2022-10-01T18:16:35.447Z,11.69
2022-10-01T18:21:50.933Z,11.38
2022-10-01T18:24:17.390Z,11.27
2022-10-01T18:26:45.607Z,11.20
2022-10-01T18:29:18.265Z,11.17
2022-10-01T18:31:45.432Z,11.13
2022-10-01T18:34:19.410Z,11.16
2022-10-01T18:36:57.623Z,11.11
2022-10-01T18:39:49.101Z,11.07
2022-10-01T18:42:31.402Z,11.07
2022-10-01T18:45:01.099Z,11.16
2022-10-01T18:47:56.098Z,11.09
2022-10-01T18:50:36.770Z,11.00
2022-10-01T18:53:18.800Z,10.97
2022-10-01T18:55:52.540Z,10.89
2022-10-01T18:58:45.346Z,10.83
2022-10-01T19:01:21.391Z,10.71
2022-10-01T19:04:08.744Z,10.73
2022-10-01T19:07:12.715Z,10.57
2022-10-01T19:10:11.550Z,10.53
2022-10-01T19:13:00.963Z,10.51
2022-10-01T19:15:51.876Z,10.56
2022-10-01T19:18:32.324Z,10.52
2022-10-01T19:21:18.985Z,10.46
2022-10-01T19:24:06.070Z,10.43
2022-10-01T19:26:47.777Z,10.46
2022-10-01T19:29:28.149Z,10.43
2022-10-01T19:32:00.232Z,10.47
2022-10-01T19:34:45.278Z,10.49
2022-10-01T19:37:33.597Z,10.56
2022-10-01T19:40:13.003Z,10.42
2022-10-01T19:42:45.013Z,10.37
2022-10-01T19:45:29.950Z,10.37
2022-10-01T19:48:23.116Z,10.44
2022-10-01T19:50:55.612Z,10.34
2022-10-01T19:53:28.421Z,10.31
2022-10-01T19:55:59.237Z,10.23
2022-10-01T19:58:25.684Z,10.24
2022-10-01T20:00:57.120Z,10.12
2022-10-01T20:04:15.922Z,10.12
2022-10-01T20:06:46.159Z,10.12
2022-10-01T20:09:46.223Z,10.13
2022-10-01T20:12:30.928Z,10.13
2022-10-01T20:15:08.775Z,10.11
2022-10-01T20:17:58.358Z,10.12
2022-10-01T20:20:45.762Z,10.11
2022-10-01T20:23:49.871Z,10.12
2022-10-01T20:26:22.274Z,10.14
2022-10-01T20:29:10.545Z,10.14
2022-10-01T20:31:48.880Z,10.15
2022-10-01T20:34:36.669Z,10.15
2022-10-01T20:37:13.720Z,10.17
2022-10-01T20:39:47.936Z,10.17
2022-10-01T20:42:19.236Z,10.15
2022-10-01T20:44:46.222Z,10.17
2022-10-01T20:47:31.232Z,10.28
2022-10-01T20:50:09.531Z,10.25
2022-10-01T20:53:04.596Z,10.25
2022-10-01T20:55:39.005Z,10.25
2022-10-01T20:58:13.023Z,10.21
2022-10-01T21:00:41.433Z,10.26
2022-10-01T21:03:31.826Z,10.25
2022-10-01T21:06:06.995Z,10.21
2022-10-01T21:08:40.745Z,10.22
2022-10-01T21:11:28.331Z,10.24
2022-10-01T21:14:06.564Z,10.21
2022-10-01T21:16:50.993Z,10.15
2022-10-01T21:19:26.787Z,10.11
2022-10-01T21:21:55.262Z,10.08
2022-10-01T21:24:37.153Z,10.06
2022-10-01T21:27:48.040Z,10.05
2022-10-01T21:30:17.481Z,10.08
2022-10-01T21:33:03.218Z,10.07
2022-10-01T21:35:54.835Z,10.07
2022-10-01T21:38:52.669Z,10.06
2022-10-01T21:41:36.499Z,10.10
2022-10-01T21:44:18.116Z,10.14
2022-10-01T21:46:54.395Z,10.11
2022-10-01T21:49:24.379Z,10.08
2022-10-01T21:51:59.160Z,10.06
2022-10-01T21:54:31.680Z,10.04
2022-10-01T21:57:13.195Z,10.03
2022-10-01T21:59:58.227Z,10.05
2022-10-01T22:02:48.079Z,10.04
2022-10-01T22:05:37.345Z,10.05
2022-10-01T22:08:47.355Z,10.08
2022-10-01T22:11:23.602Z,10.05
2022-10-01T22:14:02.682Z,10.08
2022-10-01T22:16:38.638Z,10.04
2022-10-01T22:19:12.623Z,10.04
2022-10-01T22:21:44.638Z,10.02
2022-10-01T22:24:30.970Z,9.98
2022-10-01T22:27:18.947Z,9.95
2022-10-01T22:29:51.718Z,9.94
2022-10-01T22:32:22.263Z,9.90
2022-10-01T22:34:57.867Z,9.86
2022-10-01T22:37:50.926Z,9.85
2022-10-01T22:40:44.726Z,9.85
2022-10-01T22:43:12.906Z,9.84
2022-10-01T22:46:17.865Z,9.85
2022-10-01T22:49:14.723Z,9.89
2022-10-01T22:51:49.733Z,9.98
2022-10-01T22:54:23.881Z,10.08
2022-10-01T22:57:04.836Z,10.19
2022-10-01T22:59:43.872Z,10.28
2022-10-01T23:02:22.638Z,10.42
2022-10-01T23:05:14.727Z,10.54
2022-10-01T23:08:02.237Z,10.60
2022-10-01T23:10:41.954Z,10.63
2022-10-01T23:13:34.527Z,10.67
2022-10-01T23:16:18.095Z,10.73
2022-10-01T23:18:58.643Z,10.77
2022-10-01T23:21:45.350Z,10.82
2022-10-01T23:24:27.990Z,10.86
2022-10-01T23:27:16.406Z,10.91
2022-10-01T23:30:08.254Z,10.91
2022-10-01T23:32:40.805Z,10.89
2022-10-01T23:35:36.527Z,10.85
2022-10-01T23:38:30.883Z,10.83
2022-10-01T23:41:18.706Z,10.79
2022-10-01T23:43:48.155Z,10.79
2022-10-01T23:46:20.767Z,10.75
2022-10-01T23:48:56.263Z,10.72
2022-10-01T23:51:38.026Z,10.67
2022-10-01T23:54:27.195Z,10.60
2022-10-01T23:57:10.118Z,10.61
2022-10-01T23:59:59.647Z,10.62
